Terminal Aerodrome Forecast
Issued by NWS Billings, MT

Home | Current Version | Previous Version | Text Only | Print | Product List | Glossary On
Versions: 1 2 3 4 5 6 7 8 9 10 11 12 13 14 15 16 17 18 19 20
000
FTUS45 KBYZ 171131
TAFBIL
TAF
KBIL 171131Z 1712/1812 00000KT P6SM SCT090 SCT120
     FM171400 23008KT P6SM BKN080
     FM171800 23012KT P6SM SCT080 BKN120
     FM172300 23018KT P6SM SCT100 BKN150=

USA.gov is the U.S. government's official web portal to all federal, state and local government web resources and services.